Pine Air, New York
Current Conditions -  °F | °C
As of 7:56 PM on Tuesday 21 Oct 2014 (Local Time) from KISP Reporting Station
Broken Clouds Broken Clouds  
Wind Chill: 56°   Ceiling: 10000
Heat Index: 56°   Visibility: 10mi
Dew Point: 52°   Wind: 5mph
Humidity: 87%   Direction: 50°NE
Pressure: 29.85"   Gusts: NA
Location:  40.7837°N, 73.252°W
Report Text: KISP 212356Z 05004KT 10SM FEW034 FEW070 BKN100 BKN130 BKN230 13/11 A2985 RMK AO2 SLP108 OCNL LTGIC DSNT W CB DSNT W TCU DSNT NW-NE 60027 T01330111 10200 20128 53007
Loading
Personal Weather Stations






























Interactive Weather Map
Tropical Storm Tracking
New forecast layout! Learn more

10-Day Weather Forecast

Advertisements
Track Severe Weather on mobile